sensor_id;sensor_type;location;lat;lon;timestamp;pressure;altitude;pressure_sealevel;temperature;humidity
47913;BME280;33676;51.006;17.180;2024-03-29T00:01:07;98769.75;;;7.92;74.43
47913;BME280;33676;51.006;17.180;2024-03-29T00:03:51;98775.95;;;7.92;74.77
47913;BME280;33676;51.006;17.180;2024-03-29T00:06:20;98773.70;;;7.94;74.87
47913;BME280;33676;51.006;17.180;2024-03-29T00:08:47;98778.70;;;7.97;75.18
47913;BME280;33676;51.006;17.180;2024-03-29T00:11:14;98785.55;;;8.00;75.33
47913;BME280;33676;51.006;17.180;2024-03-29T00:13:41;98792.23;;;8.03;75.27
47913;BME280;33676;51.006;17.180;2024-03-29T00:16:08;98796.48;;;8.06;75.51
47913;BME280;33676;51.006;17.180;2024-03-29T00:18:35;98797.06;;;8.09;75.60
47913;BME280;33676;51.006;17.180;2024-03-29T00:21:03;98802.10;;;8.11;75.71
47913;BME280;33676;51.006;17.180;2024-03-29T00:23:34;98808.68;;;8.13;75.57
47913;BME280;33676;51.006;17.180;2024-03-29T00:26:12;98816.38;;;8.15;75.57
47913;BME280;33676;51.006;17.180;2024-03-29T00:28:39;98823.80;;;8.16;75.46
47913;BME280;33676;51.006;17.180;2024-03-29T00:31:07;98832.65;;;8.14;75.41
47913;BME280;33676;51.006;17.180;2024-03-29T00:33:35;98843.64;;;8.12;75.32
47913;BME280;33676;51.006;17.180;2024-03-29T00:36:02;98845.37;;;8.08;75.28
47913;BME280;33676;51.006;17.180;2024-03-29T00:38:30;98855.92;;;8.03;75.18
47913;BME280;33676;51.006;17.180;2024-03-29T00:40:57;98865.21;;;7.96;74.97
47913;BME280;33676;51.006;17.180;2024-03-29T00:43:25;98869.19;;;7.90;74.97
47913;BME280;33676;51.006;17.180;2024-03-29T00:45:52;98882.45;;;7.82;74.98
47913;BME280;33676;51.006;17.180;2024-03-29T00:48:19;98887.58;;;7.74;75.02
47913;BME280;33676;51.006;17.180;2024-03-29T00:50:47;98886.83;;;7.67;75.19
47913;BME280;33676;51.006;17.180;2024-03-29T00:53:14;98889.30;;;7.58;75.23
47913;BME280;33676;51.006;17.180;2024-03-29T00:55:41;98894.88;;;7.50;75.27
47913;BME280;33676;51.006;17.180;2024-03-29T00:58:08;98903.02;;;7.43;75.37
47913;BME280;33676;51.006;17.180;2024-03-29T01:00:35;98911.16;;;7.35;75.45
47913;BME280;33676;51.006;17.180;2024-03-29T01:03:03;98917.41;;;7.27;75.53
47913;BME280;33676;51.006;17.180;2024-03-29T01:05:30;98917.14;;;7.18;75.79
47913;BME280;33676;51.006;17.180;2024-03-29T01:07:57;98924.52;;;7.11;75.92
47913;BME280;33676;51.006;17.180;2024-03-29T01:10:24;98928.09;;;7.06;75.89
47913;BME280;33676;51.006;17.180;2024-03-29T01:12:51;98928.31;;;7.02;76.10
47913;BME280;33676;51.006;17.180;2024-03-29T01:15:18;98928.29;;;6.97;76.18
47913;BME280;33676;51.006;17.180;2024-03-29T01:17:45;98934.23;;;6.95;76.20
47913;BME280;33676;51.006;17.180;2024-03-29T01:20:13;98937.55;;;6.93;76.31
47913;BME280;33676;51.006;17.180;2024-03-29T01:22:40;98939.85;;;6.90;76.59
47913;BME280;33676;51.006;17.180;2024-03-29T01:25:07;98945.48;;;6.93;76.92
47913;BME280;33676;51.006;17.180;2024-03-29T01:27:36;98941.02;;;7.03;77.60
47913;BME280;33676;51.006;17.180;2024-03-29T01:30:04;98945.29;;;7.16;78.15
47913;BME280;33676;51.006;17.180;2024-03-29T01:32:31;98943.18;;;7.29;78.02
47913;BME280;33676;51.006;17.180;2024-03-29T01:34:58;98948.05;;;7.39;77.96
47913;BME280;33676;51.006;17.180;2024-03-29T01:37:25;98946.73;;;7.48;77.93
47913;BME280;33676;51.006;17.180;2024-03-29T01:39:52;98946.58;;;7.58;78.06
47913;BME280;33676;51.006;17.180;2024-03-29T01:42:19;98946.50;;;7.67;78.06
47913;BME280;33676;51.006;17.180;2024-03-29T01:44:47;98947.23;;;7.74;77.82
47913;BME280;33676;51.006;17.180;2024-03-29T01:47:17;98950.11;;;7.81;77.65
47913;BME280;33676;51.006;17.180;2024-03-29T01:49:45;98947.86;;;7.86;77.57
47913;BME280;33676;51.006;17.180;2024-03-29T01:52:14;98947.56;;;7.91;77.47
47913;BME280;33676;51.006;17.180;2024-03-29T01:54:44;98947.71;;;7.96;77.32
47913;BME280;33676;51.006;17.180;2024-03-29T01:57:12;98955.69;;;7.98;77.11
47913;BME280;33676;51.006;17.180;2024-03-29T01:59:42;98961.92;;;8.01;77.11
47913;BME280;33676;51.006;17.180;2024-03-29T02:02:10;98961.63;;;8.02;77.20
47913;BME280;33676;51.006;17.180;2024-03-29T02:04:38;98964.73;;;8.04;77.10
47913;BME280;33676;51.006;17.180;2024-03-29T02:07:05;98962.87;;;8.06;77.12
47913;BME280;33676;51.006;17.180;2024-03-29T02:09:32;98967.90;;;8.06;77.10
47913;BME280;33676;51.006;17.180;2024-03-29T02:12:00;98968.39;;;8.06;76.92
47913;BME280;33676;51.006;17.180;2024-03-29T02:14:27;98968.33;;;8.05;76.79
47913;BME280;33676;51.006;17.180;2024-03-29T02:16:57;98962.23;;;8.01;76.68
47913;BME280;33676;51.006;17.180;2024-03-29T02:19:28;98967.49;;;7.96;76.68
47913;BME280;33676;51.006;17.180;2024-03-29T02:21:59;98963.70;;;7.90;76.43
47913;BME280;33676;51.006;17.180;2024-03-29T02:24:32;98958.48;;;7.84;76.24
47913;BME280;33676;51.006;17.180;2024-03-29T02:27:00;98963.33;;;7.79;76.30
47913;BME280;33676;51.006;17.180;2024-03-29T02:29:30;98973.27;;;7.75;76.28
47913;BME280;33676;51.006;17.180;2024-03-29T02:31:57;98976.14;;;7.70;76.30
47913;BME280;33676;51.006;17.180;2024-03-29T02:34:24;98985.31;;;7.64;76.29
47913;BME280;33676;51.006;17.180;2024-03-29T02:36:53;98989.70;;;7.57;76.32
47913;BME280;33676;51.006;17.180;2024-03-29T02:39:20;98996.89;;;7.53;76.39
47913;BME280;33676;51.006;17.180;2024-03-29T02:41:50;99001.17;;;7.48;76.41
47913;BME280;33676;51.006;17.180;2024-03-29T02:44:17;99007.35;;;7.43;76.39
47913;BME280;33676;51.006;17.180;2024-03-29T02:46:45;99010.64;;;7.37;76.56
47913;BME280;33676;51.006;17.180;2024-03-29T02:49:17;99006.52;;;7.30;76.53
47913;BME280;33676;51.006;17.180;2024-03-29T02:51:46;99011.07;;;7.23;76.51
47913;BME280;33676;51.006;17.180;2024-03-29T02:54:14;99012.09;;;7.18;76.74
47913;BME280;33676;51.006;17.180;2024-03-29T02:56:42;99015.27;;;7.13;76.80
47913;BME280;33676;51.006;17.180;2024-03-29T02:59:10;99011.77;;;7.09;76.84
47913;BME280;33676;51.006;17.180;2024-03-29T03:01:40;99010.36;;;7.05;76.87
47913;BME280;33676;51.006;17.180;2024-03-29T03:04:08;99012.70;;;7.02;76.99
47913;BME280;33676;51.006;17.180;2024-03-29T03:06:35;99010.70;;;6.99;77.06
47913;BME280;33676;51.006;17.180;2024-03-29T03:09:05;99012.69;;;6.96;77.14
47913;BME280;33676;51.006;17.180;2024-03-29T03:11:56;99011.40;;;6.92;76.98
47913;BME280;33676;51.006;17.180;2024-03-29T03:14:25;99014.14;;;6.89;77.04
47913;BME280;33676;51.006;17.180;2024-03-29T03:16:52;99023.06;;;6.86;76.98
47913;BME280;33676;51.006;17.180;2024-03-29T03:19:19;99026.04;;;6.84;77.05
47913;BME280;33676;51.006;17.180;2024-03-29T03:21:47;99028.98;;;6.82;77.04
47913;BME280;33676;51.006;17.180;2024-03-29T03:24:14;99036.83;;;6.79;77.09
47913;BME280;33676;51.006;17.180;2024-03-29T03:26:42;99032.40;;;6.76;77.44
47913;BME280;33676;51.006;17.180;2024-03-29T03:29:09;99034.30;;;6.72;77.57
47913;BME280;33676;51.006;17.180;2024-03-29T03:31:38;99031.64;;;6.69;77.63
47913;BME280;33676;51.006;17.180;2024-03-29T03:34:06;99024.13;;;6.65;77.75
47913;BME280;33676;51.006;17.180;2024-03-29T03:36:34;99017.05;;;6.62;77.90
47913;BME280;33676;51.006;17.180;2024-03-29T03:39:02;99014.92;;;6.61;77.92
47913;BME280;33676;51.006;17.180;2024-03-29T03:41:30;99013.52;;;6.59;77.98
47913;BME280;33676;51.006;17.180;2024-03-29T03:43:57;99010.34;;;6.57;78.22
47913;BME280;33676;51.006;17.180;2024-03-29T03:46:24;99004.21;;;6.56;78.20
47913;BME280;33676;51.006;17.180;2024-03-29T03:48:51;99004.92;;;6.56;78.39
47913;BME280;33676;51.006;17.180;2024-03-29T03:51:18;99004.80;;;6.55;78.38
47913;BME280;33676;51.006;17.180;2024-03-29T03:53:45;99010.75;;;6.54;78.48
47913;BME280;33676;51.006;17.180;2024-03-29T03:56:13;99023.05;;;6.55;78.56
47913;BME280;33676;51.006;17.180;2024-03-29T03:58:40;99022.66;;;6.53;78.38
47913;BME280;33676;51.006;17.180;2024-03-29T04:01:07;99018.27;;;6.52;78.53
47913;BME280;33676;51.006;17.180;2024-03-29T04:03:34;99023.63;;;6.50;78.35
47913;BME280;33676;51.006;17.180;2024-03-29T04:06:06;99033.48;;;6.48;78.52
47913;BME280;33676;51.006;17.180;2024-03-29T04:08:33;99048.40;;;6.46;78.42
47913;BME280;33676;51.006;17.180;2024-03-29T04:11:04;99061.91;;;6.44;78.59
47913;BME280;33676;51.006;17.180;2024-03-29T04:13:31;99060.52;;;6.42;78.33
47913;BME280;33676;51.006;17.180;2024-03-29T04:16:02;99053.92;;;6.40;78.35
47913;BME280;33676;51.006;17.180;2024-03-29T04:18:29;99054.10;;;6.38;78.35
47913;BME280;33676;51.006;17.180;2024-03-29T04:21:03;99046.98;;;6.36;78.34
47913;BME280;33676;51.006;17.180;2024-03-29T04:23:31;99047.74;;;6.33;78.28
47913;BME280;33676;51.006;17.180;2024-03-29T04:25:59;99048.15;;;6.30;78.40
47913;BME280;33676;51.006;17.180;2024-03-29T04:28:26;99059.54;;;6.28;78.41
47913;BME280;33676;51.006;17.180;2024-03-29T04:30:55;99068.60;;;6.28;78.63
47913;BME280;33676;51.006;17.180;2024-03-29T04:33:24;99071.21;;;6.28;78.56
47913;BME280;33676;51.006;17.180;2024-03-29T04:36:02;99069.31;;;6.28;78.67
47913;BME280;33676;51.006;17.180;2024-03-29T04:38:31;99068.96;;;6.28;78.77
47913;BME280;33676;51.006;17.180;2024-03-29T04:40:59;99068.44;;;6.28;78.71
47913;BME280;33676;51.006;17.180;2024-03-29T04:43:28;99074.30;;;6.28;78.78
47913;BME280;33676;51.006;17.180;2024-03-29T04:46:09;99079.25;;;6.29;78.82
47913;BME280;33676;51.006;17.180;2024-03-29T04:48:37;99091.65;;;6.31;78.84
47913;BME280;33676;51.006;17.180;2024-03-29T04:51:05;99094.17;;;6.32;79.08
47913;BME280;33676;51.006;17.180;2024-03-29T04:53:34;99084.78;;;6.34;79.13
47913;BME280;33676;51.006;17.180;2024-03-29T04:56:02;99087.69;;;6.37;79.00
47913;BME280;33676;51.006;17.180;2024-03-29T04:58:29;99086.07;;;6.40;79.18
47913;BME280;33676;51.006;17.180;2024-03-29T05:00:56;99092.69;;;6.44;79.20
47913;BME280;33676;51.006;17.180;2024-03-29T05:03:23;99097.61;;;6.47;79.14
47913;BME280;33676;51.006;17.180;2024-03-29T05:05:52;99095.42;;;6.51;78.99
47913;BME280;33676;51.006;17.180;2024-03-29T05:08:20;99096.95;;;6.51;79.03
47913;BME280;33676;51.006;17.180;2024-03-29T05:10:49;99104.35;;;6.50;78.91
47913;BME280;33676;51.006;17.180;2024-03-29T05:13:17;99098.20;;;6.49;78.86
47913;BME280;33676;51.006;17.180;2024-03-29T05:15:47;99097.88;;;6.48;78.95
47913;BME280;33676;51.006;17.180;2024-03-29T05:18:14;99100.39;;;6.49;78.91
47913;BME280;33676;51.006;17.180;2024-03-29T05:20:41;99104.84;;;6.50;78.82
47913;BME280;33676;51.006;17.180;2024-03-29T05:23:14;99104.51;;;6.50;78.88
47913;BME280;33676;51.006;17.180;2024-03-29T05:25:42;99113.04;;;6.50;78.94
47913;BME280;33676;51.006;17.180;2024-03-29T05:28:10;99117.58;;;6.49;79.02
47913;BME280;33676;51.006;17.180;2024-03-29T05:30:38;99120.98;;;6.50;79.18
47913;BME280;33676;51.006;17.180;2024-03-29T05:33:05;99112.42;;;6.53;79.40
47913;BME280;33676;51.006;17.180;2024-03-29T05:35:33;99110.58;;;6.57;79.61
47913;BME280;33676;51.006;17.180;2024-03-29T05:38:03;99112.37;;;6.60;79.70
47913;BME280;33676;51.006;17.180;2024-03-29T05:40:33;99115.55;;;6.66;79.78
47913;BME280;33676;51.006;17.180;2024-03-29T05:43:02;99106.42;;;6.72;79.87
47913;BME280;33676;51.006;17.180;2024-03-29T05:45:30;99105.62;;;6.79;80.07
47913;BME280;33676;51.006;17.180;2024-03-29T05:47:58;99104.04;;;6.88;80.42
47913;BME280;33676;51.006;17.180;2024-03-29T05:50:25;99103.31;;;6.97;80.71
47913;BME280;33676;51.006;17.180;2024-03-29T05:52:53;99100.45;;;7.06;80.68
47913;BME280;33676;51.006;17.180;2024-03-29T05:55:20;99101.42;;;7.15;80.65
47913;BME280;33676;51.006;17.180;2024-03-29T05:57:47;99114.28;;;7.25;80.75
47913;BME280;33676;51.006;17.180;2024-03-29T06:00:15;99113.40;;;7.36;80.73
47913;BME280;33676;51.006;17.180;2024-03-29T06:02:43;99104.91;;;7.46;80.72
47913;BME280;33676;51.006;17.180;2024-03-29T06:05:15;99101.05;;;7.57;80.80
47913;BME280;33676;51.006;17.180;2024-03-29T06:07:43;99098.61;;;7.69;80.74
47913;BME280;33676;51.006;17.180;2024-03-29T06:10:16;99092.31;;;7.80;80.89
47913;BME280;33676;51.006;17.180;2024-03-29T06:12:55;99091.27;;;7.92;80.94
47913;BME280;33676;51.006;17.180;2024-03-29T06:15:24;99102.09;;;8.04;80.83
47913;BME280;33676;51.006;17.180;2024-03-29T06:18:11;99102.25;;;8.16;80.84
47913;BME280;33676;51.006;17.180;2024-03-29T06:21:04;99105.69;;;8.28;80.79
47913;BME280;33676;51.006;17.180;2024-03-29T06:23:33;99109.52;;;8.42;80.71
47913;BME280;33676;51.006;17.180;2024-03-29T06:26:02;99117.81;;;8.55;80.61
47913;BME280;33676;51.006;17.180;2024-03-29T06:28:32;99125.62;;;8.69;80.62
47913;BME280;33676;51.006;17.180;2024-03-29T06:30:59;99130.71;;;8.84;80.58
47913;BME280;33676;51.006;17.180;2024-03-29T06:33:29;99131.49;;;8.99;80.42
47913;BME280;33676;51.006;17.180;2024-03-29T06:35:56;99125.02;;;9.12;80.43
47913;BME280;33676;51.006;17.180;2024-03-29T06:38:23;99109.96;;;9.25;80.22
47913;BME280;33676;51.006;17.180;2024-03-29T06:40:50;99104.78;;;9.35;80.09
47913;BME280;33676;51.006;17.180;2024-03-29T06:43:17;99104.34;;;9.46;79.84
47913;BME280;33676;51.006;17.180;2024-03-29T06:45:45;99105.31;;;9.56;79.74
47913;BME280;33676;51.006;17.180;2024-03-29T06:48:12;99105.98;;;9.68;79.54
47913;BME280;33676;51.006;17.180;2024-03-29T06:50:41;99098.99;;;9.81;79.51
47913;BME280;33676;51.006;17.180;2024-03-29T06:53:08;99097.73;;;9.94;79.52
47913;BME280;33676;51.006;17.180;2024-03-29T06:55:35;99097.89;;;10.09;79.53
47913;BME280;33676;51.006;17.180;2024-03-29T06:58:04;99108.13;;;10.26;79.56
47913;BME280;33676;51.006;17.180;2024-03-29T07:00:31;99111.40;;;10.45;79.28
47913;BME280;33676;51.006;17.180;2024-03-29T07:02:58;99115.05;;;10.65;79.29
47913;BME280;33676;51.006;17.180;2024-03-29T07:05:25;99122.63;;;10.86;79.22
47913;BME280;33676;51.006;17.180;2024-03-29T07:07:52;99127.93;;;11.05;79.04
47913;BME280;33676;51.006;17.180;2024-03-29T07:10:21;99134.30;;;11.21;78.82
47913;BME280;33676;51.006;17.180;2024-03-29T07:12:48;99138.52;;;11.37;78.37
47913;BME280;33676;51.006;17.180;2024-03-29T07:15:15;99136.88;;;11.48;77.69
47913;BME280;33676;51.006;17.180;2024-03-29T07:17:42;99136.72;;;11.58;77.50
47913;BME280;33676;51.006;17.180;2024-03-29T07:20:10;99137.25;;;11.69;77.21
47913;BME280;33676;51.006;17.180;2024-03-29T07:22:38;99147.48;;;11.79;76.84
47913;BME280;33676;51.006;17.180;2024-03-29T07:25:05;99159.47;;;11.86;76.37
47913;BME280;33676;51.006;17.180;2024-03-29T07:27:33;99167.61;;;11.94;76.19
47913;BME280;33676;51.006;17.180;2024-03-29T07:30:03;99168.27;;;12.02;76.05
47913;BME280;33676;51.006;17.180;2024-03-29T07:32:31;99165.45;;;12.08;75.93
47913;BME280;33676;51.006;17.180;2024-03-29T07:34:58;99162.91;;;12.14;75.40
47913;BME280;33676;51.006;17.180;2024-03-29T07:37:26;99166.46;;;12.19;75.14
47913;BME280;33676;51.006;17.180;2024-03-29T07:39:53;99164.16;;;12.24;74.84
47913;BME280;33676;51.006;17.180;2024-03-29T07:42:21;99161.27;;;12.32;75.10
47913;BME280;33676;51.006;17.180;2024-03-29T07:44:49;99159.54;;;12.42;74.81
47913;BME280;33676;51.006;17.180;2024-03-29T07:47:15;99158.92;;;12.53;74.90
47913;BME280;33676;51.006;17.180;2024-03-29T07:49:43;99153.77;;;12.62;74.79
47913;BME280;33676;51.006;17.180;2024-03-29T07:52:10;99147.73;;;12.71;74.63
47913;BME280;33676;51.006;17.180;2024-03-29T07:54:37;99152.73;;;12.80;74.41
47913;BME280;33676;51.006;17.180;2024-03-29T07:57:05;99159.27;;;12.88;74.13
47913;BME280;33676;51.006;17.180;2024-03-29T07:59:35;99162.64;;;12.96;74.08
47913;BME280;33676;51.006;17.180;2024-03-29T08:02:02;99164.23;;;13.05;74.00
47913;BME280;33676;51.006;17.180;2024-03-29T08:04:29;99173.50;;;13.19;74.03
47913;BME280;33676;51.006;17.180;2024-03-29T08:06:57;99183.39;;;13.32;73.95
47913;BME280;33676;51.006;17.180;2024-03-29T08:09:24;99186.16;;;13.47;73.83
47913;BME280;33676;51.006;17.180;2024-03-29T08:11:51;99185.67;;;13.61;73.88
47913;BME280;33676;51.006;17.180;2024-03-29T08:14:20;99191.70;;;13.78;73.84
47913;BME280;33676;51.006;17.180;2024-03-29T08:16:47;99198.64;;;13.92;73.29
47913;BME280;33676;51.006;17.180;2024-03-29T08:19:14;99202.40;;;14.04;73.01
47913;BME280;33676;51.006;17.180;2024-03-29T08:21:41;99203.41;;;14.18;73.04
47913;BME280;33676;51.006;17.180;2024-03-29T08:24:08;99201.69;;;14.33;72.78
47913;BME280;33676;51.006;17.180;2024-03-29T08:26:35;99205.70;;;14.42;72.06
47913;BME280;33676;51.006;17.180;2024-03-29T08:29:02;99205.96;;;14.49;71.79
47913;BME280;33676;51.006;17.180;2024-03-29T08:31:29;99202.94;;;14.66;72.26
47913;BME280;33676;51.006;17.180;2024-03-29T08:33:56;99203.28;;;14.84;72.24
47913;BME280;33676;51.006;17.180;2024-03-29T08:36:29;99207.39;;;15.01;71.83
47913;BME280;33676;51.006;17.180;2024-03-29T08:38:57;99208.91;;;15.12;71.34
47913;BME280;33676;51.006;17.180;2024-03-29T08:41:24;99208.61;;;15.23;71.39
47913;BME280;33676;51.006;17.180;2024-03-29T08:43:51;99207.40;;;15.33;70.75
47913;BME280;33676;51.006;17.180;2024-03-29T08:46:18;99206.49;;;15.39;70.29
47913;BME280;33676;51.006;17.180;2024-03-29T08:48:45;99199.40;;;15.47;70.26
47913;BME280;33676;51.006;17.180;2024-03-29T08:51:12;99193.67;;;15.60;70.55
47913;BME280;33676;51.006;17.180;2024-03-29T08:53:41;99180.29;;;15.75;70.23
47913;BME280;33676;51.006;17.180;2024-03-29T08:56:08;99185.40;;;15.90;70.32
47913;BME280;33676;51.006;17.180;2024-03-29T08:58:35;99181.95;;;16.03;69.58
47913;BME280;33676;51.006;17.180;2024-03-29T09:01:04;99178.80;;;16.11;68.81
47913;BME280;33676;51.006;17.180;2024-03-29T09:03:31;99181.14;;;16.20;68.83
47913;BME280;33676;51.006;17.180;2024-03-29T09:05:59;99178.36;;;16.33;68.41
47913;BME280;33676;51.006;17.180;2024-03-29T09:08:26;99173.87;;;16.41;67.76
47913;BME280;33676;51.006;17.180;2024-03-29T09:10:53;99177.98;;;16.47;67.82
47913;BME280;33676;51.006;17.180;2024-03-29T09:13:20;99178.60;;;16.57;67.06
47913;BME280;33676;51.006;17.180;2024-03-29T09:15:47;99172.17;;;16.61;66.48
47913;BME280;33676;51.006;17.180;2024-03-29T09:18:16;99168.85;;;16.69;66.78
47913;BME280;33676;51.006;17.180;2024-03-29T09:20:59;99169.33;;;16.85;66.60
47913;BME280;33676;51.006;17.180;2024-03-29T09:23:27;99167.09;;;17.02;66.89
47913;BME280;33676;51.006;17.180;2024-03-29T09:25:56;99163.74;;;17.14;65.98
47913;BME280;33676;51.006;17.180;2024-03-29T09:28:24;99166.84;;;17.20;65.58
47913;BME280;33676;51.006;17.180;2024-03-29T09:30:57;99164.34;;;17.32;65.55
47913;BME280;33676;51.006;17.180;2024-03-29T09:33:25;99158.05;;;17.48;65.19
47913;BME280;33676;51.006;17.180;2024-03-29T09:35:53;99151.95;;;17.65;64.50
47913;BME280;33676;51.006;17.180;2024-03-29T09:38:21;99149.25;;;17.79;63.66
47913;BME280;33676;51.006;17.180;2024-03-29T09:41:13;99160.52;;;17.90;62.92
47913;BME280;33676;51.006;17.180;2024-03-29T09:43:42;99159.65;;;18.08;62.95
47913;BME280;33676;51.006;17.180;2024-03-29T09:46:15;99150.54;;;18.24;61.82
47913;BME280;33676;51.006;17.180;2024-03-29T09:48:44;99148.55;;;18.35;61.22
47913;BME280;33676;51.006;17.180;2024-03-29T09:51:14;99148.29;;;18.48;61.22
47913;BME280;33676;51.006;17.180;2024-03-29T09:53:43;99145.20;;;18.63;60.68
47913;BME280;33676;51.006;17.180;2024-03-29T09:56:11;99144.90;;;18.76;60.01
47913;BME280;33676;51.006;17.180;2024-03-29T09:58:38;99141.38;;;18.88;59.43
47913;BME280;33676;51.006;17.180;2024-03-29T10:01:07;99146.69;;;19.01;59.39
47913;BME280;33676;51.006;17.180;2024-03-29T10:03:39;99150.77;;;19.20;59.68
47913;BME280;33676;51.006;17.180;2024-03-29T10:06:07;99154.90;;;19.36;58.87
47913;BME280;33676;51.006;17.180;2024-03-29T10:08:39;99156.19;;;19.50;58.94
47913;BME280;33676;51.006;17.180;2024-03-29T10:11:06;99150.59;;;19.71;59.14
47913;BME280;33676;51.006;17.180;2024-03-29T10:13:33;99147.17;;;19.87;58.63
47913;BME280;33676;51.006;17.180;2024-03-29T10:16:01;99147.30;;;20.09;59.05
47913;BME280;33676;51.006;17.180;2024-03-29T10:18:29;99138.88;;;20.29;58.38
47913;BME280;33676;51.006;17.180;2024-03-29T10:21:05;99139.67;;;20.27;57.70
47913;BME280;33676;51.006;17.180;2024-03-29T10:23:35;99139.06;;;20.15;56.94
47913;BME280;33676;51.006;17.180;2024-03-29T10:26:03;99146.08;;;20.03;56.53
47913;BME280;33676;51.006;17.180;2024-03-29T10:28:34;99142.66;;;19.92;56.48
47913;BME280;33676;51.006;17.180;2024-03-29T10:31:04;99130.16;;;19.81;55.98
47913;BME280;33676;51.006;17.180;2024-03-29T10:33:32;99129.86;;;19.71;56.22
47913;BME280;33676;51.006;17.180;2024-03-29T10:36:01;99127.77;;;19.70;55.67
47913;BME280;33676;51.006;17.180;2024-03-29T10:38:32;99124.58;;;19.72;55.43
47913;BME280;33676;51.006;17.180;2024-03-29T10:40:59;99124.50;;;19.86;55.53
47913;BME280;33676;51.006;17.180;2024-03-29T10:43:26;99116.84;;;20.11;55.45
47913;BME280;33676;51.006;17.180;2024-03-29T10:45:55;99106.14;;;20.37;55.59
47913;BME280;33676;51.006;17.180;2024-03-29T10:48:27;99095.84;;;20.69;55.98
47913;BME280;33676;51.006;17.180;2024-03-29T10:50:55;99087.13;;;21.04;56.35
47913;BME280;33676;51.006;17.180;2024-03-29T10:53:24;99090.02;;;21.49;56.72
47913;BME280;33676;51.006;17.180;2024-03-29T10:55:56;99078.45;;;21.82;55.74
47913;BME280;33676;51.006;17.180;2024-03-29T10:58:30;99069.01;;;22.11;55.38
47913;BME280;33676;51.006;17.180;2024-03-29T11:00:58;99069.02;;;22.42;55.24
47913;BME280;33676;51.006;17.180;2024-03-29T11:03:35;99065.04;;;22.75;55.18
47913;BME280;33676;51.006;17.180;2024-03-29T11:06:06;99072.16;;;23.11;54.79
47913;BME280;33676;51.006;17.180;2024-03-29T11:08:36;99080.13;;;23.55;54.96
47913;BME280;33676;51.006;17.180;2024-03-29T11:11:09;99065.84;;;23.99;54.66
47913;BME280;33676;51.006;17.180;2024-03-29T11:16:19;99056.16;;;24.29;53.36
47913;BME280;33676;51.006;17.180;2024-03-29T11:18:48;99056.95;;;24.34;53.20
47913;BME280;33676;51.006;17.180;2024-03-29T11:21:16;99052.08;;;24.63;53.78
47913;BME280;33676;51.006;17.180;2024-03-29T11:23:53;99053.59;;;24.91;53.40
47913;BME280;33676;51.006;17.180;2024-03-29T11:26:20;99051.27;;;25.05;52.45
47913;BME280;33676;51.006;17.180;2024-03-29T11:28:52;99049.56;;;25.09;51.94
47913;BME280;33676;51.006;17.180;2024-03-29T11:31:24;99055.05;;;25.23;51.75
47913;BME280;33676;51.006;17.180;2024-03-29T11:33:52;99052.12;;;25.34;51.27
47913;BME280;33676;51.006;17.180;2024-03-29T11:36:25;99045.36;;;25.47;51.13
47913;BME280;33676;51.006;17.180;2024-03-29T11:38:58;99046.94;;;25.73;51.52
47913;BME280;33676;51.006;17.180;2024-03-29T11:41:27;99049.84;;;25.98;51.74
47913;BME280;33676;51.006;17.180;2024-03-29T11:43:56;99055.52;;;26.06;51.37
47913;BME280;33676;51.006;17.180;2024-03-29T11:46:25;99054.27;;;26.09;50.40
47913;BME280;33676;51.006;17.180;2024-03-29T11:48:52;99051.46;;;26.21;50.76
47913;BME280;33676;51.006;17.180;2024-03-29T11:51:22;99051.79;;;26.29;50.47
47913;BME280;33676;51.006;17.180;2024-03-29T11:53:51;99051.70;;;26.27;49.85
47913;BME280;33676;51.006;17.180;2024-03-29T11:56:19;99048.30;;;26.44;50.01
47913;BME280;33676;51.006;17.180;2024-03-29T11:58:47;99048.08;;;26.70;50.29
47913;BME280;33676;51.006;17.180;2024-03-29T12:01:18;99047.27;;;27.01;50.51
47913;BME280;33676;51.006;17.180;2024-03-29T12:03:45;99043.84;;;27.33;50.69
47913;BME280;33676;51.006;17.180;2024-03-29T12:06:14;99044.05;;;27.72;50.83
47913;BME280;33676;51.006;17.180;2024-03-29T12:08:42;99047.83;;;27.91;49.53
47913;BME280;33676;51.006;17.180;2024-03-29T12:11:09;99047.05;;;27.89;48.57
47913;BME280;33676;51.006;17.180;2024-03-29T12:13:37;99032.80;;;27.94;49.05
47913;BME280;33676;51.006;17.180;2024-03-29T12:16:05;99023.40;;;28.18;49.15
47913;BME280;33676;51.006;17.180;2024-03-29T12:18:32;99024.27;;;28.29;48.39
47913;BME280;33676;51.006;17.180;2024-03-29T12:21:00;99025.23;;;28.30;47.87
47913;BME280;33676;51.006;17.180;2024-03-29T12:23:27;99027.75;;;28.24;47.41
47913;BME280;33676;51.006;17.180;2024-03-29T12:25:58;99029.38;;;28.30;47.69
47913;BME280;33676;51.006;17.180;2024-03-29T12:28:25;99029.48;;;28.46;47.74
47913;BME280;33676;51.006;17.180;2024-03-29T12:30:53;99027.51;;;28.66;47.86
47913;BME280;33676;51.006;17.180;2024-03-29T12:33:22;99021.23;;;28.88;47.76
47913;BME280;33676;51.006;17.180;2024-03-29T12:35:51;99013.40;;;29.11;47.88
47913;BME280;33676;51.006;17.180;2024-03-29T12:38:22;99006.08;;;29.50;48.23
47913;BME280;33676;51.006;17.180;2024-03-29T12:40:50;99004.42;;;29.74;48.03
47913;BME280;33676;51.006;17.180;2024-03-29T12:43:23;98999.65;;;29.97;47.83
47913;BME280;33676;51.006;17.180;2024-03-29T12:45:51;98998.80;;;30.11;46.94
47913;BME280;33676;51.006;17.180;2024-03-29T12:48:20;99000.17;;;30.14;46.64
47913;BME280;33676;51.006;17.180;2024-03-29T12:50:48;98999.50;;;30.36;46.93
47913;BME280;33676;51.006;17.180;2024-03-29T12:53:16;99002.34;;;30.66;47.23
47913;BME280;33676;51.006;17.180;2024-03-29T12:55:46;98994.35;;;30.92;46.81
47913;BME280;33676;51.006;17.180;2024-03-29T12:58:15;98990.92;;;31.07;46.37
47913;BME280;33676;51.006;17.180;2024-03-29T13:00:44;98995.66;;;31.18;46.08
47913;BME280;33676;51.006;17.180;2024-03-29T13:03:11;98994.20;;;31.23;45.77
47913;BME280;33676;51.006;17.180;2024-03-29T13:05:40;98987.88;;;31.03;45.25